LFSX 200100Z AUTO 12007KT CAVOK 18/15 Q1021 LFSX 200030Z AUTO 09005KT CAVOK 18/15 Q1021 LFSX 200000Z AUTO 08004KT CAVOK 19/15 Q1022 LFSX 192330Z AUTO 08005KT CAVOK 18/16 Q1022 LFSX 192300Z AUTO 08005KT CAVOK 18/16 Q1022 LFSX 192230Z AUTO 08007KT CAVOK 19/16 Q1022 LFSX 192200Z AUTO 06005KT CAVOK 20/17 Q1022 LFSX 192130Z AUTO 07006KT CAVOK 20/17 Q1021 LFSX 192100Z AUTO 09005KT CAVOK 20/18 Q1021 LFSX 192030Z AUTO 07005KT 9999 ////// 21/18 Q1021 LFSX 192000Z AUTO 06003KT CAVOK 22/18 Q1021 LFSX 191930Z AUTO 08002KT CAVOK 22/19 Q1021 LFSX 191900Z AUTO 12003KT CAVOK 23/18 Q1021 LFSX 191830Z AUTO VRB01KT CAVOK 24/18 Q1021 LFSX 191800Z AUTO 00000KT CAVOK 27/16 Q1021 LFSX 191730Z AUTO 26003KT 230V290 CAVOK 28/16 Q1020 LFSX 191700Z AUTO 25005KT 210V310 CAVOK 28/16 Q1020 LFSX 191630Z AUTO 27004KT 230V340 CAVOK 28/16 Q1020 LFSX 191600Z AUTO 25006KT 220V280 CAVOK 28/16 Q1021 LFSX 191530Z AUTO VRB02KT CAVOK 28/17 Q1021 LFSX 191500Z AUTO VRB02KT CAVOK 27/15 Q1021 LFSX 191430Z AUTO VRB01KT CAVOK 26/16 Q1021 LFSX 191400Z AUTO VRB03KT CAVOK ///// Q1022 LFSX 191330Z AUTO 21004KT 140V250 CAVOK 24/16 Q1022 LFSX 191300Z AUTO VRB03KT 9999 //////TCU 23/17 Q1022 LFSX 191230Z AUTO 22005KT 190V250 9999 RA //////CB 23/16 Q1022 LFSX 191200Z AUTO 24013KT 9999 4100 VCTS ///CB 25/14 Q1022 LFSX 191130Z AUTO 26012KT CAVOK ///// Q1021 LFSX 191100Z AUTO 25012KT CAVOK 27/15 Q1021 LFSX 191030Z AUTO 24012KT 210V270 CAVOK 28/16 Q1021 LFSX 191000Z AUTO 25011KT CAVOK 27/15 Q1021 LFSX 190930Z AUTO 23008G22KT 150V290 CAVOK 27/16 Q1021 LFSX 190900Z AUTO 24010KT 190V280 CAVOK 27/15 Q1021 LFSX 190830Z AUTO 24009KT 210V290 CAVOK ///// Q1021 LFSX 190800Z AUTO 14005KT 100V200 CAVOK 24/16 Q1021 LFSX 190730Z AUTO 12006KT CAVOK 23/15 Q1021 LFSX 190700Z AUTO 12005KT CAVOK 22/15 Q1021 LFSX 190630Z AUTO 10003KT CAVOK 20/15 Q1021 LFSX 190600Z AUTO 11004KT CAVOK 19/14 Q1021 LFSX 190530Z AUTO 08005KT 9999 ////// 17/13 Q1020 LFSX 190500Z AUTO 08006KT CAVOK 17/12 Q1020 LFSX 190430Z AUTO 07006KT CAVOK 16/12 Q1020 LFSX 190400Z AUTO 05005KT CAVOK 16/12 Q1020 LFSX 190330Z AUTO 07005KT CAVOK 16/12 Q1020 LFSX 190300Z AUTO 07007KT CAVOK 17/12 Q1019 LFSX 190230Z AUTO 07006KT CAVOK 17/12 Q1019 LFSX 190200Z AUTO 08006KT CAVOK 17/12 Q1019 LFSX 190130Z AUTO 12004KT 100V160 CAVOK 17/13 Q1019 LFSX 190100Z AUTO VRB01KT CAVOK 17/13 Q1019 LFSX 190030Z AUTO 06004KT CAVOK 17/13 Q1019 LFSX 190000Z AUTO 07005KT CAVOK 17/13 Q1019 LFSX 182330Z AUTO 07003KT CAVOK 17/14 Q1019 LFSX 182300Z AUTO VRB02KT CAVOK 17/15 Q1019 LFSX 182230Z AUTO 00000KT CAVOK 17/15 Q1019 LFSX 182200Z AUTO VRB03KT CAVOK 17/15 Q1019 LFSX 182130Z AUTO VRB03KT CAVOK 19/16 Q1019 LFSX 182100Z AUTO VRB02KT CAVOK 19/16 Q1019 LFSX 182030Z AUTO 00000KT CAVOK 20/16 Q1019 LFSX 182000Z AUTO 10001KT CAVOK 20/16 Q1019 LFSX 181930Z AUTO 07002KT CAVOK 22/16 Q1019 LFSX 181900Z AUTO 04002KT CAVOK 24/17 Q1018 LFSX 181830Z AUTO 00000KT CAVOK 25/17 Q1019 LFSX 181800Z AUTO VRB02KT CAVOK 27/13 Q1019 LFSX 181730Z AUTO VRB03KT CAVOK 28/12 Q1018 LFSX 181700Z AUTO 13005KT CAVOK 29/12 Q1018 LFSX 181630Z AUTO 14005KT 090V180 CAVOK 29/12 Q1019 LFSX 181600Z AUTO VRB04KT CAVOK 29/11 Q1019 LFSX 181530Z AUTO 16006KT CAVOK 29/11 Q1019 LFSX 181500Z AUTO 18004KT 120V270 CAVOK 29/13 Q1019 LFSX 181430Z AUTO 15005KT 110V190 CAVOK 29/13 Q1019 LFSX 181400Z AUTO VRB03KT 9999 ////// 29/12 Q1020

METAR Messwerte "LUXEUIL/ST. SAUV" LFSX

Zurück zur Übersicht

Ortsname
Ländercode / m ü. NN
Zeit Temperatur Taupunkt Rel.
Luftfeuchte
Luftdruck:
Altimeter
NN
Station
Wind in Beaufort
(Knoten)
Sichtweite
(Meter)
Wolken
(Meter über Grund)
Wettererscheinung
LUXEUIL/ST. SAUV
FR 266
Fr 20.05. 03:00181583 %1021
1021
989
OSO 3 (7)>= 10000Nicht signifikant 
LUXEUIL/ST. SAUV
FR 266
Fr 20.05. 02:30181583 %1021
1021
989
O 2 (5)>= 10000Nicht signifikant 
LUXEUIL/ST. SAUV
FR 266
Fr 20.05. 02:00191578 %1022
1022
990
O 2 (4)>= 10000Nicht signifikant 
LUXEUIL/ST. SAUV
FR 266
Fr 20.05. 01:30181688 %1022
1022
990
O 2 (5)>= 10000Nicht signifikant 
LUXEUIL/ST. SAUV
FR 266
Fr 20.05. 01:00181688 %1022
1022
990
O 2 (5)>= 10000Nicht signifikant 
LUXEUIL/ST. SAUV
FR 266
Fr 20.05. 00:30191683 %1022
1022
990
O 3 (7)>= 10000Nicht signifikant 
LUXEUIL/ST. SAUV
FR 266
Fr 20.05. 00:00201783 %1022
1022
990
ONO 2 (5)>= 10000Nicht signifikant 
LUXEUIL/ST. SAUV
FR 266
Do 19.05. 23:30201783 %1021
1021
989
ONO 2 (6)>= 10000Nicht signifikant 
LUXEUIL/ST. SAUV
FR 266
Do 19.05. 23:00201888 %1021
1021
989
O 2 (5)>= 10000Nicht signifikant 
LUXEUIL/ST. SAUV
FR 266
Do 19.05. 22:30211883 %1021
1020
989
ONO 2 (5)>= 10000  
LUXEUIL/ST. SAUV
FR 266
Do 19.05. 22:00221878 %1021
1020
989
ONO 2 (3)>= 10000Nicht signifikant 
LUXEUIL/ST. SAUV
FR 266
Do 19.05. 21:30221983 %1021
1020
989
O 1 (2)>= 10000Nicht signifikant 
LUXEUIL/ST. SAUV
FR 266
Do 19.05. 21:00231873 %1021
1020
989
OSO 2 (3)>= 10000Nicht signifikant 
LUXEUIL/ST. SAUV
FR 266
Do 19.05. 20:30241869 %1021
1020
989
Uml 1 (1)>= 10000Nicht signifikant 
LUXEUIL/ST. SAUV
FR 266
Do 19.05. 20:00271651 %1021
1020
989
Windstill>= 10000Nicht signifikant 
LUXEUIL/ST. SAUV
FR 266
Do 19.05. 19:30281648 %1020
1019
988
W 2 (3)
SW - WNW
>= 10000Nicht signifikant 
LUXEUIL/ST. SAUV
FR 266
Do 19.05. 19:00281648 %1020
1019
988
WSW 2 (5)
SSW - NW
>= 10000Nicht signifikant 
LUXEUIL/ST. SAUV
FR 266
Do 19.05. 18:30281648 %1020
1019
988
W 2 (4)
SW - NNW
>= 10000Nicht signifikant 
LUXEUIL/ST. SAUV
FR 266
Do 19.05. 18:00281648 %1021
1020
989
WSW 2 (6)
SW - W
>= 10000Nicht signifikant 
LUXEUIL/ST. SAUV
FR 266
Do 19.05. 17:30281751 %1021
1020
989
Uml 1 (2)>= 10000Nicht signifikant 
LUXEUIL/ST. SAUV
FR 266
Do 19.05. 17:00271548 %1021
1020
989
Uml 1 (2)>= 10000Nicht signifikant 
LUXEUIL/ST. SAUV
FR 266
Do 19.05. 16:30261654 %1021
1020
989
Uml 1 (1)>= 10000Nicht signifikant 
LUXEUIL/ST. SAUV
FR 266
Do 19.05. 16:00    %1022
 
 
Uml 2 (3)>= 10000Nicht signifikant 
LUXEUIL/ST. SAUV
FR 266
Do 19.05. 15:30241661 %1022
1021
990
SSW 2 (4)
SO - WSW
>= 10000Nicht signifikant 
LUXEUIL/ST. SAUV
FR 266
Do 19.05. 15:00231769 %1022
1021
990
Uml 2 (3)>= 10000  
LUXEUIL/ST. SAUV
FR 266
Do 19.05. 14:30231665 %1022
1021
990
SW 2 (5)
S - WSW
>= 10000 Regen
LUXEUIL/ST. SAUV
FR 266
Do 19.05. 14:00251450 %1022
1021
990
WSW 4 (13)>= 10000  
LUXEUIL/ST. SAUV
FR 266
Do 19.05. 13:30    %1021
 
 
W 4 (12)>= 10000Nicht signifikant 
LUXEUIL/ST. SAUV
FR 266
Do 19.05. 13:00271548 %1021
1020
989
WSW 4 (12)>= 10000Nicht signifikant 
LUXEUIL/ST. SAUV
FR 266
Do 19.05. 12:30281648 %1021
1020
989
WSW 4 (12)
SSW - W
>= 10000Nicht signifikant 
LUXEUIL/ST. SAUV
FR 266
Do 19.05. 12:00271548 %1021
1020
989
WSW 4 (11)>= 10000Nicht signifikant 
LUXEUIL/ST. SAUV
FR 266
Do 19.05. 11:30271651 %1021
1020
989
SW 3 (8) - 6 (22)
SSO - WNW
>= 10000Nicht signifikant 
LUXEUIL/ST. SAUV
FR 266
Do 19.05. 11:00271548 %1021
1020
989
WSW 3 (10)
S - W
>= 10000Nicht signifikant 
LUXEUIL/ST. SAUV
FR 266
Do 19.05. 10:30    %1021
 
 
WSW 3 (9)
SSW - WNW
>= 10000Nicht signifikant 
LUXEUIL/ST. SAUV
FR 266
Do 19.05. 10:00241661 %1021
1020
989
SO 2 (5)
O - SSW
>= 10000Nicht signifikant 
LUXEUIL/ST. SAUV
FR 266
Do 19.05. 09:30231561 %1021
1020
989
OSO 2 (6)>= 10000Nicht signifikant 
LUXEUIL/ST. SAUV
FR 266
Do 19.05. 09:00221565 %1021
1020
989
OSO 2 (5)>= 10000Nicht signifikant 
LUXEUIL/ST. SAUV
FR 266
Do 19.05. 08:30201573 %1021
1021
989
O 2 (3)>= 10000Nicht signifikant 
LUXEUIL/ST. SAUV
FR 266
Do 19.05. 08:00191473 %1021
1021
989
OSO 2 (4)>= 10000Nicht signifikant 
LUXEUIL/ST. SAUV
FR 266
Do 19.05. 07:30171377 %1020
1020
988
O 2 (5)>= 10000  
LUXEUIL/ST. SAUV
FR 266
Do 19.05. 07:00171272 %1020
1020
988
O 2 (6)>= 10000Nicht signifikant 
LUXEUIL/ST. SAUV
FR 266
Do 19.05. 06:30161277 %1020
1020
988
ONO 2 (6)>= 10000Nicht signifikant 
LUXEUIL/ST. SAUV
FR 266
Do 19.05. 06:00161277 %1020
1020
988
NO 2 (5)>= 10000Nicht signifikant 
LUXEUIL/ST. SAUV
FR 266
Do 19.05. 05:30161277 %1020
1020
988
ONO 2 (5)>= 10000Nicht signifikant 
LUXEUIL/ST. SAUV
FR 266
Do 19.05. 05:00171272 %1019
1019
987
ONO 3 (7)>= 10000Nicht signifikant 
LUXEUIL/ST. SAUV
FR 266
Do 19.05. 04:30171272 %1019
1019
987
ONO 2 (6)>= 10000Nicht signifikant 
LUXEUIL/ST. SAUV
FR 266
Do 19.05. 04:00171272 %1019
1019
987
O 2 (6)>= 10000Nicht signifikant 
LUXEUIL/ST. SAUV
FR 266
Do 19.05. 03:30171377 %1019
1019
987
OSO 2 (4)
O - SSO
>= 10000Nicht signifikant 
LUXEUIL/ST. SAUV
FR 266
Do 19.05. 03:00171377 %1019
1019
987
Uml 1 (1)>= 10000Nicht signifikant 
LUXEUIL/ST. SAUV
FR 266
Do 19.05. 02:30171377 %1019
1019
987
ONO 2 (4)>= 10000Nicht signifikant 
LUXEUIL/ST. SAUV
FR 266
Do 19.05. 02:00171377 %1019
1019
987
ONO 2 (5)>= 10000Nicht signifikant 
LUXEUIL/ST. SAUV
FR 266
Do 19.05. 01:30171482 %1019
1019
987
ONO 2 (3)>= 10000Nicht signifikant 
LUXEUIL/ST. SAUV
FR 266
Do 19.05. 01:00171588 %1019
1019
987
Uml 1 (2)>= 10000Nicht signifikant 
LUXEUIL/ST. SAUV
FR 266
Do 19.05. 00:30171588 %1019
1019
987
Windstill>= 10000Nicht signifikant 
LUXEUIL/ST. SAUV
FR 266
Do 19.05. 00:00171588 %1019
1019
987
Uml 2 (3)>= 10000Nicht signifikant 
LUXEUIL/ST. SAUV
FR 266
Mi 18.05. 23:30191683 %1019
1019
987
Uml 2 (3)>= 10000Nicht signifikant 
LUXEUIL/ST. SAUV
FR 266
Mi 18.05. 23:00191683 %1019
1019
987
Uml 1 (2)>= 10000Nicht signifikant 
LUXEUIL/ST. SAUV
FR 266
Mi 18.05. 22:30201678 %1019
1018
987
Windstill>= 10000Nicht signifikant 
LUXEUIL/ST. SAUV
FR 266
Mi 18.05. 22:00201678 %1019
1018
987
O 1 (1)>= 10000Nicht signifikant 
LUXEUIL/ST. SAUV
FR 266
Mi 18.05. 21:30221669 %1019
1018
987
ONO 1 (2)>= 10000Nicht signifikant 
LUXEUIL/ST. SAUV
FR 266
Mi 18.05. 21:00241765 %1018
1017
986
NO 1 (2)>= 10000Nicht signifikant 
LUXEUIL/ST. SAUV
FR 266
Mi 18.05. 20:30251761 %1019
1018
987
Windstill>= 10000Nicht signifikant 
LUXEUIL/ST. SAUV
FR 266
Mi 18.05. 20:00271342 %1019
1018
987
Uml 1 (2)>= 10000Nicht signifikant 
LUXEUIL/ST. SAUV
FR 266
Mi 18.05. 19:30281237 %1018
1017
986
Uml 2 (3)>= 10000Nicht signifikant 
LUXEUIL/ST. SAUV
FR 266
Mi 18.05. 19:00291235 %1018
1017
986
SO 2 (5)>= 10000Nicht signifikant 
LUXEUIL/ST. SAUV
FR 266
Mi 18.05. 18:30291235 %1019
1018
987
SO 2 (5)
O - S
>= 10000Nicht signifikant 
LUXEUIL/ST. SAUV
FR 266
Mi 18.05. 18:00291133 %1019
1018
987
Uml 2 (4)>= 10000Nicht signifikant 
LUXEUIL/ST. SAUV
FR 266
Mi 18.05. 17:30291133 %1019
1018
987
SSO 2 (6)>= 10000Nicht signifikant 
LUXEUIL/ST. SAUV
FR 266
Mi 18.05. 17:00291337 %1019
1018
987
S 2 (4)
OSO - W
>= 10000Nicht signifikant 
LUXEUIL/ST. SAUV
FR 266
Mi 18.05. 16:30291337 %1019
1018
987
SSO 2 (5)
OSO - S
>= 10000Nicht signifikant 
LUXEUIL/ST. SAUV
FR 266
Mi 18.05. 16:00291235 %1020
1019
988
Uml 2 (3)>= 10000  

Altimeter: Einstellung am Altimeter (Höhenmesser), die Höhe 0 muss auf diesen Luftdruckwert zeigen, damit das Gerät die Stationshöhe richtig anzeigt.

NN: Luftdruck reduziert auf "Normal Null", auf Meereshöhe, dieser von der Temperatur abhängige Wert wird bisweilen unkorrekt einfach als "Luftdruck" bezeichnet. Eigentlich nur eine fiktive Größe, die es erlaubt, Stationen auf unterschiedlichen Höhen miteinander zu vergleichen.

Station: Realer Luftdruck an der Station.